createdAt,value
2018-09-17T00:00:24.430Z,87.63
2018-09-17T00:01:34.977Z,87.44
2018-09-17T00:02:24.421Z,87.73
2018-09-17T00:03:26.095Z,87.54
2018-09-17T00:04:24.686Z,87.63
2018-09-17T00:05:24.233Z,87.92
2018-09-17T00:08:23.443Z,87.44
2018-09-17T00:09:26.379Z,87.73
2018-09-17T00:10:21.490Z,87.73
2018-09-17T00:11:21.530Z,87.06
2018-09-17T00:12:21.903Z,87.35
2018-09-17T00:13:21.464Z,87.06
2018-09-17T00:14:42.913Z,87.35
2018-09-17T00:15:21.440Z,87.54
2018-09-17T00:16:21.371Z,87.25
2018-09-17T00:17:21.291Z,87.06
2018-09-17T00:18:22.942Z,87.25
2018-09-17T00:20:21.928Z,87.25
2018-09-17T00:21:21.323Z,87.06
2018-09-17T00:22:22.949Z,87.06
2018-09-17T00:23:21.331Z,87.06
2018-09-17T00:24:25.942Z,87.06
2018-09-17T00:25:21.335Z,87.25
2018-09-17T00:26:24.057Z,86.87
2018-09-17T00:27:21.866Z,87.25
2018-09-17T00:28:27.956Z,87.25
2018-09-17T00:29:22.906Z,86.58
2018-09-17T00:31:21.114Z,86.68
2018-09-17T00:32:21.216Z,86.77
2018-09-17T00:33:21.095Z,86.87
2018-09-17T00:34:21.120Z,86.58
2018-09-17T00:35:21.061Z,87.06
2018-09-17T00:36:22.900Z,86.87
2018-09-17T00:37:21.148Z,86.77
2018-09-17T00:38:22.955Z,86.58
2018-09-17T00:39:21.084Z,86.49
2018-09-17T00:40:21.044Z,86.58
2018-09-17T00:41:23.773Z,86.49
2018-09-17T00:42:23.868Z,86.20
2018-09-17T00:43:21.894Z,86.49
2018-09-17T00:44:21.053Z,86.39
2018-09-17T00:45:21.014Z,85.96
2018-09-17T00:46:21.001Z,86.20
2018-09-17T00:47:21.004Z,85.96
2018-09-17T00:48:27.952Z,86.20
2018-09-17T00:49:20.964Z,85.96
2018-09-17T00:50:20.984Z,85.96
2018-09-17T00:51:21.474Z,85.96
2018-09-17T00:52:20.967Z,85.77
2018-09-17T00:53:22.316Z,85.77
2018-09-17T00:54:20.851Z,85.48
2018-09-17T00:55:21.371Z,85.48
2018-09-17T00:56:20.957Z,85.19
2018-09-17T00:57:20.843Z,85.00
2018-09-17T00:58:31.422Z,85.19
2018-09-17T00:59:21.558Z,85.48
2018-09-17T01:00:20.888Z,84.81
2018-09-17T01:01:21.532Z,84.62
2018-09-17T01:02:20.801Z,85.00
2018-09-17T01:03:20.881Z,84.72
2018-09-17T01:04:20.887Z,84.43
2018-09-17T01:05:20.860Z,84.62
2018-09-17T01:06:20.869Z,84.52
2018-09-17T01:07:21.574Z,84.23
2018-09-17T01:08:20.641Z,83.95
2018-09-17T01:09:20.662Z,84.05
2018-09-17T01:10:21.537Z,84.05
2018-09-17T01:11:22.390Z,84.05
2018-09-17T01:12:20.715Z,83.95
2018-09-17T01:13:20.739Z,84.05
2018-09-17T01:14:21.342Z,83.76
2018-09-17T01:15:20.749Z,83.76
2018-09-17T01:16:20.656Z,83.47
2018-09-17T01:17:20.489Z,83.38
2018-09-17T01:18:23.559Z,83.57
2018-09-17T01:19:20.689Z,83.18
2018-09-17T01:20:35.512Z,83.28
2018-09-17T01:21:23.565Z,83.57
2018-09-17T01:22:20.573Z,83.47
2018-09-17T01:23:20.639Z,83.28
2018-09-17T01:24:20.580Z,83.18
2018-09-17T01:25:21.400Z,83.00
2018-09-17T01:26:20.464Z,83.00
2018-09-17T01:27:20.562Z,83.67
2018-09-17T01:28:21.484Z,83.09
2018-09-17T01:29:55.657Z,83.09
2018-09-17T01:31:13.879Z,83.28
2018-09-17T01:32:13.960Z,83.18
2018-09-17T01:34:17.836Z,82.81
2018-09-17T01:36:37.617Z,82.81
2018-09-17T01:37:37.714Z,82.90
2018-09-17T01:39:31.076Z,82.81
2018-09-17T01:40:29.051Z,83.09
2018-09-17T01:41:28.979Z,83.00
2018-09-17T01:42:31.992Z,82.90
2018-09-17T01:43:28.955Z,82.81
2018-09-17T01:44:29.901Z,82.90
2018-09-17T01:45:29.045Z,83.00
2018-09-17T01:46:31.508Z,82.71
2018-09-17T01:48:28.804Z,82.71
2018-09-17T01:49:28.906Z,82.61
2018-09-17T01:50:29.695Z,82.71
2018-09-17T01:51:28.848Z,82.61
2018-09-17T01:52:31.989Z,82.61
2018-09-17T01:53:28.979Z,82.52
2018-09-17T01:54:30.942Z,82.23
2018-09-17T01:55:30.376Z,82.71
2018-09-17T01:56:28.919Z,82.81
2018-09-17T01:57:28.852Z,82.23
2018-09-17T01:58:31.067Z,82.61
2018-09-17T01:59:28.900Z,82.71
2018-09-17T02:00:28.781Z,82.61
2018-09-17T02:01:28.764Z,82.32
2018-09-17T02:03:29.325Z,82.42
2018-09-17T02:04:30.463Z,82.90
2018-09-17T02:06:28.821Z,82.71
2018-09-17T02:07:28.619Z,82.81
2018-09-17T02:08:28.678Z,83.00
2018-09-17T02:09:28.751Z,83.00
2018-09-17T02:10:31.556Z,82.90
2018-09-17T02:11:29.263Z,83.28
2018-09-17T02:12:28.686Z,83.09
2018-09-17T02:13:28.595Z,83.38
2018-09-17T02:14:31.452Z,83.18
2018-09-17T02:15:28.610Z,83.47
2018-09-17T02:16:31.077Z,83.47
2018-09-17T02:17:30.255Z,83.28
2018-09-17T02:19:28.559Z,83.67
2018-09-17T02:20:29.440Z,83.28
2018-09-17T02:21:28.644Z,83.00
2018-09-17T02:22:31.942Z,83.09
2018-09-17T02:23:28.482Z,83.47
2018-09-17T02:24:30.922Z,83.57
2018-09-17T02:25:28.574Z,83.09
2018-09-17T02:26:28.401Z,83.47
2018-09-17T02:27:28.531Z,83.57
2018-09-17T02:28:28.404Z,83.47
2018-09-17T02:29:28.513Z,83.18
2018-09-17T02:30:28.377Z,83.18
2018-09-17T02:31:29.937Z,83.38
2018-09-17T02:32:28.425Z,83.57
2018-09-17T02:33:28.361Z,83.47
2018-09-17T02:34:28.248Z,83.09
2018-09-17T02:35:28.449Z,83.38
2018-09-17T02:36:28.347Z,83.18
2018-09-17T02:37:28.411Z,83.18
2018-09-17T02:39:28.283Z,83.47
2018-09-17T02:40:28.904Z,82.90
2018-09-17T02:41:28.349Z,83.09
2018-09-17T02:42:28.287Z,83.28
2018-09-17T02:43:28.302Z,83.28
2018-09-17T02:44:28.276Z,83.57
2018-09-17T02:45:28.339Z,83.51
2018-09-17T02:46:28.203Z,83.61
2018-09-17T02:47:30.544Z,83.38
2018-09-17T02:48:28.207Z,83.23
2018-09-17T02:49:28.244Z,83.42
2018-09-17T02:50:28.227Z,83.51
2018-09-17T02:51:28.174Z,83.80
2018-09-17T02:52:28.269Z,83.80
2018-09-17T02:53:28.234Z,83.70
2018-09-17T02:54:29.953Z,83.42
2018-09-17T02:55:29.972Z,83.33
2018-09-17T02:57:30.049Z,83.61
2018-09-17T02:58:28.106Z,83.61
2018-09-17T03:00:28.079Z,83.80
2018-09-17T03:01:28.102Z,83.42
2018-09-17T03:02:27.997Z,83.42
2018-09-17T03:03:27.977Z,83.33
2018-09-17T03:05:29.958Z,83.61
2018-09-17T03:07:28.073Z,83.80
2018-09-17T03:08:27.920Z,83.61
2018-09-17T03:09:31.061Z,83.61
2018-09-17T03:10:27.957Z,83.99
2018-09-17T03:11:27.977Z,83.80
2018-09-17T03:12:29.415Z,84.38
2018-09-17T03:13:27.814Z,84.19
2018-09-17T03:14:27.885Z,84.09
2018-09-17T03:16:27.943Z,84.28
2018-09-17T03:17:27.884Z,84.09
2018-09-17T03:18:27.877Z,83.90
2018-09-17T03:19:27.950Z,84.19
2018-09-17T03:20:27.800Z,84.56
2018-09-17T03:21:27.932Z,84.61
2018-09-17T03:23:27.793Z,84.56
2018-09-17T03:24:27.844Z,84.47
2018-09-17T03:25:27.874Z,84.56
2018-09-17T03:26:27.698Z,84.76
2018-09-17T03:27:27.842Z,84.47
2018-09-17T03:28:27.786Z,84.66
2018-09-17T03:29:27.710Z,84.76
2018-09-17T03:30:27.741Z,84.76
2018-09-17T03:32:27.706Z,84.89
2018-09-17T03:34:27.737Z,85.62
2018-09-17T03:35:27.634Z,85.52
2018-09-17T03:36:27.538Z,84.80
2018-09-17T03:37:29.507Z,84.80
2018-09-17T03:38:29.262Z,85.38
2018-09-17T03:39:27.552Z,85.47
2018-09-17T03:40:27.702Z,85.57
2018-09-17T03:41:27.623Z,85.28
2018-09-17T03:42:27.647Z,85.28
2018-09-17T03:43:29.539Z,85.28
2018-09-17T03:45:29.478Z,85.09
2018-09-17T03:46:29.611Z,84.99
2018-09-17T03:47:28.594Z,85.18
2018-09-17T03:48:27.384Z,85.09
2018-09-17T03:49:30.093Z,85.38
2018-09-17T03:52:27.969Z,85.09
2018-09-17T03:53:27.426Z,85.66
2018-09-17T03:54:27.423Z,85.66
2018-09-17T03:55:27.337Z,85.18
2018-09-17T03:56:27.416Z,85.47
2018-09-17T03:57:27.503Z,85.18
2018-09-17T03:58:27.320Z,85.57
2018-09-17T03:59:27.348Z,85.66
2018-09-17T04:00:27.397Z,85.94
2018-09-17T04:01:27.312Z,85.66
2018-09-17T04:02:27.143Z,85.75
2018-09-17T04:03:27.260Z,85.75
2018-09-17T04:04:27.248Z,85.47
2018-09-17T04:07:28.987Z,85.66
2018-09-17T04:08:29.030Z,86.04
2018-09-17T04:09:29.561Z,85.94
2018-09-17T04:10:27.262Z,86.23
2018-09-17T04:11:27.275Z,86.80
2018-09-17T04:12:27.340Z,86.43
2018-09-17T04:13:29.024Z,86.61
2018-09-17T04:15:27.044Z,86.61
2018-09-17T04:16:27.188Z,86.52
2018-09-17T04:17:29.560Z,87.19
2018-09-17T04:18:27.203Z,87.19
2018-09-17T04:19:27.088Z,87.19
2018-09-17T04:20:27.202Z,87.38
2018-09-17T04:21:27.206Z,87.38
2018-09-17T04:22:28.975Z,87.29
2018-09-17T04:25:29.066Z,87.76
2018-09-17T04:26:29.035Z,88.24
2018-09-17T04:27:27.098Z,88.43
2018-09-17T04:28:30.093Z,87.76
2018-09-17T04:29:26.967Z,88.43
2018-09-17T04:30:27.030Z,88.24
2018-09-17T04:31:27.093Z,88.24
2018-09-17T04:33:27.083Z,88.91
2018-09-17T04:34:28.547Z,88.62
2018-09-17T04:35:30.486Z,88.24
2018-09-17T04:36:30.559Z,88.72
2018-09-17T04:37:26.950Z,88.62
2018-09-17T04:38:29.570Z,89.29
2018-09-17T04:40:27.982Z,88.43
2018-09-17T04:41:26.975Z,89.39
2018-09-17T04:43:26.976Z,89.10
2018-09-17T04:44:26.912Z,89.39
2018-09-17T04:45:26.824Z,89.10
2018-09-17T04:49:02.049Z,89.58
2018-09-17T04:52:14.522Z,90.34
2018-09-17T04:53:10.497Z,90.16
2018-09-17T04:54:21.003Z,90.77
2018-09-17T04:54:59.846Z,91.11
2018-09-17T04:56:59.990Z,91.73
2018-09-17T04:58:04.440Z,92.25
2018-09-17T04:59:04.528Z,91.78
2018-09-17T04:59:59.839Z,92.64
2018-09-17T05:00:59.848Z,92.40
2018-09-17T05:02:01.343Z,92.35
2018-09-17T05:03:00.441Z,92.54
2018-09-17T05:04:01.466Z,92.64
2018-09-17T05:05:07.103Z,92.35
2018-09-17T05:06:14.424Z,92.35
2018-09-17T05:07:14.960Z,93.21
2018-09-17T05:08:01.488Z,92.64
2018-09-17T05:09:11.068Z,93.12
2018-09-17T05:11:04.542Z,93.21
2018-09-17T05:11:59.746Z,93.69
2018-09-17T05:12:59.638Z,94.07
2018-09-17T05:14:14.496Z,93.98
2018-09-17T05:15:00.527Z,93.88
2018-09-17T05:16:02.495Z,93.69
2018-09-17T05:16:59.747Z,93.79
2018-09-17T05:18:59.776Z,94.21
2018-09-17T05:20:00.432Z,94.93
2018-09-17T05:21:01.481Z,94.21
2018-09-17T05:22:01.468Z,94.07
2018-09-17T05:24:00.509Z,94.21
2018-09-17T05:25:59.528Z,93.93
2018-09-17T05:27:00.429Z,94.41
2018-09-17T05:28:06.978Z,93.93
2018-09-17T05:29:01.572Z,94.31
2018-09-17T05:29:59.462Z,94.31
2018-09-17T05:31:00.531Z,93.93
2018-09-17T05:32:00.502Z,93.93
2018-09-17T05:33:00.106Z,94.50
2018-09-17T05:34:00.121Z,94.21
2018-09-17T05:34:59.513Z,93.74
2018-09-17T05:35:59.520Z,94.60
2018-09-17T05:37:00.926Z,94.41
2018-09-17T05:38:06.019Z,94.12
2018-09-17T05:39:00.039Z,93.93
2018-09-17T05:40:01.022Z,94.31
2018-09-17T05:41:02.084Z,94.12
2018-09-17T05:41:59.460Z,94.12
2018-09-17T05:43:23.125Z,94.12
2018-09-17T05:44:20.586Z,93.98
2018-09-17T05:45:01.055Z,94.12
2018-09-17T05:46:00.885Z,94.84
2018-09-17T05:46:59.373Z,94.31
2018-09-17T05:47:59.966Z,94.02
2018-09-17T05:48:59.872Z,94.26
2018-09-17T05:49:59.275Z,94.26
2018-09-17T05:50:59.276Z,94.17
2018-09-17T05:54:09.011Z,93.88
2018-09-17T05:56:56.184Z,94.65
2018-09-17T05:57:55.960Z,93.98
2018-09-17T05:58:56.896Z,93.98
2018-09-17T05:59:56.091Z,94.65
2018-09-17T06:00:56.186Z,93.88
2018-09-17T06:01:57.001Z,95.12
2018-09-17T06:02:56.123Z,95.03
2018-09-17T06:03:55.997Z,94.74
2018-09-17T06:04:56.139Z,94.45
2018-09-17T06:05:56.231Z,94.84
2018-09-17T06:06:57.695Z,94.36
2018-09-17T06:07:55.829Z,94.74
2018-09-17T06:09:02.884Z,95.41
2018-09-17T06:09:57.911Z,95.03
2018-09-17T06:10:55.973Z,95.61
2018-09-17T06:11:56.117Z,94.93
2018-09-17T06:12:58.946Z,94.74
2018-09-17T06:13:56.068Z,95.12
2018-09-17T06:14:55.952Z,95.41
2018-09-17T06:15:56.877Z,95.41
2018-09-17T06:17:56.123Z,95.22
2018-09-17T06:19:00.916Z,94.74
2018-09-17T06:20:06.872Z,95.89
2018-09-17T06:20:56.795Z,95.70
2018-09-17T06:22:00.260Z,95.79
2018-09-17T06:22:57.352Z,95.51
2018-09-17T06:24:00.305Z,95.61
2018-09-17T06:24:57.477Z,95.89
2018-09-17T06:25:57.473Z,95.56
2018-09-17T06:27:57.838Z,96.03
2018-09-17T06:28:55.880Z,96.51
2018-09-17T06:29:58.462Z,96.42
2018-09-17T06:31:56.257Z,96.51
2018-09-17T06:32:55.853Z,96.99
2018-09-17T06:33:56.076Z,97.42
2018-09-17T06:36:18.538Z,96.51
2018-09-17T06:37:02.514Z,96.80
2018-09-17T06:37:57.390Z,96.32
